sensor_id;sensor_type;location;lat;lon;timestamp;P1;durP1;ratioP1;P2;durP2;ratioP2
49223;SDS011;35050;51.316;5.994;2022-08-07T00:00:50;0.40;;;0.40;;
49223;SDS011;35050;51.316;5.994;2022-08-07T00:03:16;0.50;;;0.50;;
49223;SDS011;35050;51.316;5.994;2022-08-07T00:05:41;0.45;;;0.45;;
49223;SDS011;35050;51.316;5.994;2022-08-07T00:08:07;0.55;;;0.50;;
49223;SDS011;35050;51.316;5.994;2022-08-07T00:10:33;0.45;;;0.45;;
49223;SDS011;35050;51.316;5.994;2022-08-07T00:13:00;0.60;;;0.60;;
49223;SDS011;35050;51.316;5.994;2022-08-07T00:15:27;1.13;;;0.52;;
49223;SDS011;35050;51.316;5.994;2022-08-07T00:17:54;1.10;;;0.60;;
49223;SDS011;35050;51.316;5.994;2022-08-07T00:20:21;0.60;;;0.60;;
49223;SDS011;35050;51.316;5.994;2022-08-07T00:22:47;0.52;;;0.52;;
49223;SDS011;35050;51.316;5.994;2022-08-07T00:25:13;0.95;;;0.70;;
49223;SDS011;35050;51.316;5.994;2022-08-07T00:27:39;0.68;;;0.63;;
49223;SDS011;35050;51.316;5.994;2022-08-07T00:30:04;0.55;;;0.52;;
49223;SDS011;35050;51.316;5.994;2022-08-07T00:32:31;0.68;;;0.60;;
49223;SDS011;35050;51.316;5.994;2022-08-07T00:34:56;0.52;;;0.50;;
49223;SDS011;35050;51.316;5.994;2022-08-07T00:37:22;0.50;;;0.50;;
49223;SDS011;35050;51.316;5.994;2022-08-07T00:39:49;0.85;;;0.60;;
49223;SDS011;35050;51.316;5.994;2022-08-07T00:42:14;1.15;;;0.77;;
49223;SDS011;35050;51.316;5.994;2022-08-07T00:44:40;0.70;;;0.60;;
49223;SDS011;35050;51.316;5.994;2022-08-07T00:47:06;0.60;;;0.60;;
49223;SDS011;35050;51.316;5.994;2022-08-07T00:49:32;0.68;;;0.68;;
49223;SDS011;35050;51.316;5.994;2022-08-07T00:51:58;0.80;;;0.70;;
49223;SDS011;35050;51.316;5.994;2022-08-07T00:54:24;0.90;;;0.70;;
49223;SDS011;35050;51.316;5.994;2022-08-07T00:56:49;1.05;;;0.68;;
49223;SDS011;35050;51.316;5.994;2022-08-07T00:59:19;0.57;;;0.57;;
49223;SDS011;35050;51.316;5.994;2022-08-07T01:01:45;0.73;;;0.73;;
49223;SDS011;35050;51.316;5.994;2022-08-07T01:04:12;0.80;;;0.70;;
49223;SDS011;35050;51.316;5.994;2022-08-07T01:06:40;0.60;;;0.60;;
49223;SDS011;35050;51.316;5.994;2022-08-07T01:09:05;2.10;;;0.60;;
49223;SDS011;35050;51.316;5.994;2022-08-07T01:11:31;0.60;;;0.60;;
49223;SDS011;35050;51.316;5.994;2022-08-07T01:13:57;1.50;;;0.75;;
49223;SDS011;35050;51.316;5.994;2022-08-07T01:16:24;0.68;;;0.68;;
49223;SDS011;35050;51.316;5.994;2022-08-07T01:18:50;0.77;;;0.68;;
49223;SDS011;35050;51.316;5.994;2022-08-07T01:21:17;1.38;;;0.65;;
49223;SDS011;35050;51.316;5.994;2022-08-07T01:23:49;0.73;;;0.52;;
49223;SDS011;35050;51.316;5.994;2022-08-07T01:26:16;1.05;;;0.68;;
49223;SDS011;35050;51.316;5.994;2022-08-07T01:28:47;0.60;;;0.57;;
49223;SDS011;35050;51.316;5.994;2022-08-07T01:31:14;0.60;;;0.60;;
49223;SDS011;35050;51.316;5.994;2022-08-07T01:33:41;0.65;;;0.65;;
49223;SDS011;35050;51.316;5.994;2022-08-07T01:36:07;1.15;;;0.70;;
49223;SDS011;35050;51.316;5.994;2022-08-07T01:38:34;0.70;;;0.70;;
49223;SDS011;35050;51.316;5.994;2022-08-07T01:41:02;0.70;;;0.70;;
49223;SDS011;35050;51.316;5.994;2022-08-07T01:43:29;0.60;;;0.60;;
49223;SDS011;35050;51.316;5.994;2022-08-07T01:45:56;1.55;;;0.90;;
49223;SDS011;35050;51.316;5.994;2022-08-07T01:48:22;1.00;;;0.90;;
49223;SDS011;35050;51.316;5.994;2022-08-07T01:50:51;1.08;;;0.90;;
49223;SDS011;35050;51.316;5.994;2022-08-07T01:53:20;0.88;;;0.80;;
49223;SDS011;35050;51.316;5.994;2022-08-07T01:55:51;1.42;;;1.00;;
49223;SDS011;35050;51.316;5.994;2022-08-07T01:58:22;0.80;;;0.80;;
49223;SDS011;35050;51.316;5.994;2022-08-07T02:00:56;1.33;;;0.70;;
49223;SDS011;35050;51.316;5.994;2022-08-07T02:03:28;0.68;;;0.55;;
49223;SDS011;35050;51.316;5.994;2022-08-07T02:05:58;0.60;;;0.60;;
49223;SDS011;35050;51.316;5.994;2022-08-07T02:08:28;1.27;;;0.90;;
49223;SDS011;35050;51.316;5.994;2022-08-07T02:10:54;1.30;;;0.80;;
49223;SDS011;35050;51.316;5.994;2022-08-07T02:13:24;0.93;;;0.70;;
49223;SDS011;35050;51.316;5.994;2022-08-07T02:15:52;1.05;;;0.70;;
49223;SDS011;35050;51.316;5.994;2022-08-07T02:18:20;1.00;;;0.88;;
49223;SDS011;35050;51.316;5.994;2022-08-07T02:20:47;0.80;;;0.80;;
49223;SDS011;35050;51.316;5.994;2022-08-07T02:23:16;1.13;;;0.82;;
49223;SDS011;35050;51.316;5.994;2022-08-07T02:25:43;0.77;;;0.75;;
49223;SDS011;35050;51.316;5.994;2022-08-07T02:28:11;0.98;;;0.80;;
49223;SDS011;35050;51.316;5.994;2022-08-07T02:30:38;1.45;;;0.80;;
49223;SDS011;35050;51.316;5.994;2022-08-07T02:33:06;1.00;;;0.90;;
49223;SDS011;35050;51.316;5.994;2022-08-07T02:35:33;1.75;;;1.15;;
49223;SDS011;35050;51.316;5.994;2022-08-07T02:38:01;1.17;;;1.08;;
49223;SDS011;35050;51.316;5.994;2022-08-07T02:40:28;1.48;;;0.88;;
49223;SDS011;35050;51.316;5.994;2022-08-07T02:42:55;0.95;;;0.90;;
49223;SDS011;35050;51.316;5.994;2022-08-07T02:45:23;1.10;;;0.90;;
49223;SDS011;35050;51.316;5.994;2022-08-07T02:47:51;1.30;;;1.20;;
49223;SDS011;35050;51.316;5.994;2022-08-07T02:50:17;0.77;;;0.77;;
49223;SDS011;35050;51.316;5.994;2022-08-07T02:52:45;1.75;;;0.98;;
49223;SDS011;35050;51.316;5.994;2022-08-07T02:57:42;0.95;;;0.90;;
49223;SDS011;35050;51.316;5.994;2022-08-07T03:00:10;1.00;;;1.00;;
49223;SDS011;35050;51.316;5.994;2022-08-07T03:02:38;0.98;;;0.85;;
49223;SDS011;35050;51.316;5.994;2022-08-07T03:05:05;1.00;;;0.90;;
49223;SDS011;35050;51.316;5.994;2022-08-07T03:07:32;1.20;;;1.05;;
49223;SDS011;35050;51.316;5.994;2022-08-07T03:09:58;1.15;;;1.05;;
49223;SDS011;35050;51.316;5.994;2022-08-07T03:12:26;1.27;;;1.00;;
49223;SDS011;35050;51.316;5.994;2022-08-07T03:14:53;0.90;;;0.90;;
49223;SDS011;35050;51.316;5.994;2022-08-07T03:17:20;0.88;;;0.88;;
49223;SDS011;35050;51.316;5.994;2022-08-07T03:19:47;0.98;;;0.88;;
49223;SDS011;35050;51.316;5.994;2022-08-07T03:22:14;1.10;;;1.00;;
49223;SDS011;35050;51.316;5.994;2022-08-07T03:24:41;1.42;;;1.15;;
49223;SDS011;35050;51.316;5.994;2022-08-07T03:27:07;0.82;;;0.80;;
49223;SDS011;35050;51.316;5.994;2022-08-07T03:29:36;3.28;;;1.20;;
49223;SDS011;35050;51.316;5.994;2022-08-07T03:32:11;0.73;;;0.73;;
49223;SDS011;35050;51.316;5.994;2022-08-07T03:34:39;1.30;;;1.00;;
49223;SDS011;35050;51.316;5.994;2022-08-07T03:37:08;1.23;;;1.13;;
49223;SDS011;35050;51.316;5.994;2022-08-07T03:39:36;1.00;;;1.00;;
49223;SDS011;35050;51.316;5.994;2022-08-07T03:42:03;1.58;;;1.17;;
49223;SDS011;35050;51.316;5.994;2022-08-07T03:44:30;1.88;;;0.90;;
49223;SDS011;35050;51.316;5.994;2022-08-07T03:46:58;1.38;;;1.23;;
49223;SDS011;35050;51.316;5.994;2022-08-07T03:49:24;3.50;;;0.98;;
49223;SDS011;35050;51.316;5.994;2022-08-07T03:51:51;1.17;;;1.08;;
49223;SDS011;35050;51.316;5.994;2022-08-07T03:54:17;0.90;;;0.90;;
49223;SDS011;35050;51.316;5.994;2022-08-07T03:56:43;1.60;;;1.00;;
49223;SDS011;35050;51.316;5.994;2022-08-07T03:59:11;1.10;;;1.00;;
49223;SDS011;35050;51.316;5.994;2022-08-07T04:01:39;1.20;;;1.10;;
49223;SDS011;35050;51.316;5.994;2022-08-07T04:04:06;0.90;;;0.90;;
49223;SDS011;35050;51.316;5.994;2022-08-07T04:06:32;1.00;;;0.90;;
49223;SDS011;35050;51.316;5.994;2022-08-07T04:08:59;0.90;;;0.90;;
49223;SDS011;35050;51.316;5.994;2022-08-07T04:11:26;1.38;;;1.00;;
49223;SDS011;35050;51.316;5.994;2022-08-07T04:13:52;1.45;;;0.90;;
49223;SDS011;35050;51.316;5.994;2022-08-07T04:16:19;1.05;;;1.00;;
49223;SDS011;35050;51.316;5.994;2022-08-07T04:18:46;1.00;;;0.90;;
49223;SDS011;35050;51.316;5.994;2022-08-07T04:21:11;1.48;;;1.10;;
49223;SDS011;35050;51.316;5.994;2022-08-07T04:23:37;1.20;;;1.10;;
49223;SDS011;35050;51.316;5.994;2022-08-07T04:26:05;0.95;;;0.90;;
49223;SDS011;35050;51.316;5.994;2022-08-07T04:28:31;1.52;;;1.10;;
49223;SDS011;35050;51.316;5.994;2022-08-07T04:30:57;1.25;;;1.15;;
49223;SDS011;35050;51.316;5.994;2022-08-07T04:33:24;1.30;;;1.13;;
49223;SDS011;35050;51.316;5.994;2022-08-07T04:35:51;1.50;;;1.40;;
49223;SDS011;35050;51.316;5.994;2022-08-07T04:38:17;1.35;;;1.23;;
49223;SDS011;35050;51.316;5.994;2022-08-07T04:40:44;2.47;;;1.40;;
49223;SDS011;35050;51.316;5.994;2022-08-07T04:43:10;1.88;;;1.38;;
49223;SDS011;35050;51.316;5.994;2022-08-07T04:50:58;1.52;;;1.42;;
49223;SDS011;35050;51.316;5.994;2022-08-07T04:56:09;1.40;;;1.30;;
49223;SDS011;35050;51.316;5.994;2022-08-07T05:01:39;2.85;;;1.40;;
49223;SDS011;35050;51.316;5.994;2022-08-07T05:04:14;1.40;;;1.30;;
49223;SDS011;35050;51.316;5.994;2022-08-07T05:06:57;1.45;;;1.17;;
49223;SDS011;35050;51.316;5.994;2022-08-07T05:10:02;2.10;;;1.40;;
49223;SDS011;35050;51.316;5.994;2022-08-07T05:12:51;1.98;;;1.75;;
49223;SDS011;35050;51.316;5.994;2022-08-07T05:15:23;2.05;;;1.60;;
49223;SDS011;35050;51.316;5.994;2022-08-07T05:18:12;2.97;;;1.50;;
49223;SDS011;35050;51.316;5.994;2022-08-07T05:20:44;1.63;;;1.48;;
49223;SDS011;35050;51.316;5.994;2022-08-07T05:23:13;2.05;;;1.80;;
49223;SDS011;35050;51.316;5.994;2022-08-07T05:25:43;2.38;;;1.30;;
49223;SDS011;35050;51.316;5.994;2022-08-07T05:28:09;2.05;;;1.90;;
49223;SDS011;35050;51.316;5.994;2022-08-07T05:30:38;1.80;;;1.67;;
49223;SDS011;35050;51.316;5.994;2022-08-07T05:33:06;1.77;;;1.33;;
49223;SDS011;35050;51.316;5.994;2022-08-07T05:35:33;1.77;;;1.67;;
49223;SDS011;35050;51.316;5.994;2022-08-07T05:37:59;1.85;;;1.60;;
49223;SDS011;35050;51.316;5.994;2022-08-07T05:40:28;1.77;;;1.65;;
49223;SDS011;35050;51.316;5.994;2022-08-07T05:42:54;2.22;;;1.90;;
49223;SDS011;35050;51.316;5.994;2022-08-07T05:45:20;1.70;;;1.60;;
49223;SDS011;35050;51.316;5.994;2022-08-07T05:47:47;3.33;;;2.00;;
49223;SDS011;35050;51.316;5.994;2022-08-07T05:50:13;2.25;;;1.70;;
49223;SDS011;35050;51.316;5.994;2022-08-07T05:52:39;2.28;;;1.52;;
49223;SDS011;35050;51.316;5.994;2022-08-07T05:55:05;3.13;;;1.77;;
49223;SDS011;35050;51.316;5.994;2022-08-07T05:57:32;1.92;;;1.73;;
49223;SDS011;35050;51.316;5.994;2022-08-07T06:00:00;2.03;;;1.80;;
49223;SDS011;35050;51.316;5.994;2022-08-07T06:02:28;2.28;;;2.08;;
49223;SDS011;35050;51.316;5.994;2022-08-07T06:04:58;2.10;;;1.90;;
49223;SDS011;35050;51.316;5.994;2022-08-07T06:07:31;3.05;;;2.35;;
49223;SDS011;35050;51.316;5.994;2022-08-07T06:09:58;2.67;;;2.00;;
49223;SDS011;35050;51.316;5.994;2022-08-07T06:12:25;2.33;;;1.83;;
49223;SDS011;35050;51.316;5.994;2022-08-07T06:14:51;3.05;;;1.67;;
49223;SDS011;35050;51.316;5.994;2022-08-07T06:17:20;1.98;;;1.77;;
49223;SDS011;35050;51.316;5.994;2022-08-07T06:19:47;2.47;;;1.80;;
49223;SDS011;35050;51.316;5.994;2022-08-07T06:22:14;1.92;;;1.65;;
49223;SDS011;35050;51.316;5.994;2022-08-07T06:24:40;1.58;;;1.48;;
49223;SDS011;35050;51.316;5.994;2022-08-07T06:27:06;3.47;;;1.70;;
49223;SDS011;35050;51.316;5.994;2022-08-07T06:29:32;1.80;;;1.70;;
49223;SDS011;35050;51.316;5.994;2022-08-07T06:31:58;1.80;;;1.70;;
49223;SDS011;35050;51.316;5.994;2022-08-07T06:34:25;2.10;;;1.60;;
49223;SDS011;35050;51.316;5.994;2022-08-07T06:36:51;2.03;;;1.50;;
49223;SDS011;35050;51.316;5.994;2022-08-07T06:39:18;2.20;;;2.00;;
49223;SDS011;35050;51.316;5.994;2022-08-07T06:41:45;1.98;;;1.55;;
49223;SDS011;35050;51.316;5.994;2022-08-07T06:44:14;2.00;;;1.50;;
49223;SDS011;35050;51.316;5.994;2022-08-07T06:46:41;1.67;;;1.38;;
49223;SDS011;35050;51.316;5.994;2022-08-07T06:49:07;2.30;;;1.90;;
49223;SDS011;35050;51.316;5.994;2022-08-07T06:51:33;2.08;;;1.88;;
49223;SDS011;35050;51.316;5.994;2022-08-07T06:54:02;2.22;;;1.83;;
49223;SDS011;35050;51.316;5.994;2022-08-07T06:56:29;2.78;;;1.80;;
49223;SDS011;35050;51.316;5.994;2022-08-07T06:59:09;2.00;;;1.80;;
49223;SDS011;35050;51.316;5.994;2022-08-07T07:01:41;2.45;;;1.80;;
49223;SDS011;35050;51.316;5.994;2022-08-07T07:04:08;2.05;;;1.70;;
49223;SDS011;35050;51.316;5.994;2022-08-07T07:06:34;2.22;;;2.03;;
49223;SDS011;35050;51.316;5.994;2022-08-07T07:11:41;2.72;;;1.90;;
49223;SDS011;35050;51.316;5.994;2022-08-07T07:14:16;2.33;;;1.90;;
49223;SDS011;35050;51.316;5.994;2022-08-07T07:16:45;2.80;;;2.08;;
49223;SDS011;35050;51.316;5.994;2022-08-07T07:19:14;2.30;;;1.80;;
49223;SDS011;35050;51.316;5.994;2022-08-07T07:21:47;2.42;;;1.60;;
49223;SDS011;35050;51.316;5.994;2022-08-07T07:24:16;1.90;;;1.70;;
49223;SDS011;35050;51.316;5.994;2022-08-07T07:26:43;1.70;;;1.60;;
49223;SDS011;35050;51.316;5.994;2022-08-07T07:29:11;1.70;;;1.60;;
49223;SDS011;35050;51.316;5.994;2022-08-07T07:31:40;3.60;;;2.08;;
49223;SDS011;35050;51.316;5.994;2022-08-07T07:34:12;2.58;;;2.00;;
49223;SDS011;35050;51.316;5.994;2022-08-07T07:36:42;2.35;;;2.08;;
49223;SDS011;35050;51.316;5.994;2022-08-07T07:39:09;2.33;;;1.98;;
49223;SDS011;35050;51.316;5.994;2022-08-07T07:41:38;2.00;;;1.60;;
49223;SDS011;35050;51.316;5.994;2022-08-07T07:44:06;3.47;;;1.73;;
49223;SDS011;35050;51.316;5.994;2022-08-07T07:46:34;1.95;;;1.70;;
49223;SDS011;35050;51.316;5.994;2022-08-07T07:49:01;4.38;;;1.88;;
49223;SDS011;35050;51.316;5.994;2022-08-07T07:51:28;2.47;;;1.88;;
49223;SDS011;35050;51.316;5.994;2022-08-07T07:53:56;1.92;;;1.70;;
49223;SDS011;35050;51.316;5.994;2022-08-07T07:56:23;1.88;;;1.45;;
49223;SDS011;35050;51.316;5.994;2022-08-07T07:58:50;2.45;;;1.70;;
49223;SDS011;35050;51.316;5.994;2022-08-07T08:01:17;1.55;;;1.42;;
49223;SDS011;35050;51.316;5.994;2022-08-07T08:03:45;1.83;;;1.50;;
49223;SDS011;35050;51.316;5.994;2022-08-07T08:06:13;2.53;;;1.33;;
49223;SDS011;35050;51.316;5.994;2022-08-07T08:08:40;2.17;;;1.90;;
49223;SDS011;35050;51.316;5.994;2022-08-07T08:11:07;2.85;;;2.05;;
49223;SDS011;35050;51.316;5.994;2022-08-07T08:13:39;3.80;;;2.20;;
49223;SDS011;35050;51.316;5.994;2022-08-07T08:16:07;2.40;;;1.92;;
49223;SDS011;35050;51.316;5.994;2022-08-07T08:18:36;3.78;;;1.98;;
49223;SDS011;35050;51.316;5.994;2022-08-07T08:21:02;2.88;;;2.05;;
49223;SDS011;35050;51.316;5.994;2022-08-07T08:23:30;3.00;;;2.20;;
49223;SDS011;35050;51.316;5.994;2022-08-07T08:26:37;5.53;;;2.40;;
49223;SDS011;35050;51.316;5.994;2022-08-07T08:29:22;3.17;;;1.50;;
49223;SDS011;35050;51.316;5.994;2022-08-07T08:31:47;2.67;;;1.88;;
49223;SDS011;35050;51.316;5.994;2022-08-07T08:34:15;1.90;;;1.60;;
49223;SDS011;35050;51.316;5.994;2022-08-07T08:36:45;1.85;;;1.38;;
49223;SDS011;35050;51.316;5.994;2022-08-07T08:39:13;2.53;;;1.65;;
49223;SDS011;35050;51.316;5.994;2022-08-07T08:41:49;3.30;;;2.33;;
49223;SDS011;35050;51.316;5.994;2022-08-07T08:44:51;3.95;;;2.22;;
49223;SDS011;35050;51.316;5.994;2022-08-07T08:50:22;2.45;;;1.65;;
49223;SDS011;35050;51.316;5.994;2022-08-07T08:55:58;3.00;;;1.30;;
49223;SDS011;35050;51.316;5.994;2022-08-07T09:06:52;2.88;;;1.70;;
49223;SDS011;35050;51.316;5.994;2022-08-07T09:12:30;2.15;;;1.30;;
49223;SDS011;35050;51.316;5.994;2022-08-07T09:17:45;1.77;;;1.20;;
49223;SDS011;35050;51.316;5.994;2022-08-07T09:26:02;1.10;;;0.70;;
49223;SDS011;35050;51.316;5.994;2022-08-07T09:28:39;0.88;;;0.82;;
49223;SDS011;35050;51.316;5.994;2022-08-07T09:45:09;0.50;;;0.50;;
49223;SDS011;35050;51.316;5.994;2022-08-07T09:48:05;0.90;;;0.60;;
49223;SDS011;35050;51.316;5.994;2022-08-07T09:50:36;0.57;;;0.57;;
49223;SDS011;35050;51.316;5.994;2022-08-07T09:53:23;1.73;;;0.77;;
49223;SDS011;35050;51.316;5.994;2022-08-07T09:58:50;1.35;;;0.60;;
49223;SDS011;35050;51.316;5.994;2022-08-07T10:01:59;1.42;;;0.95;;
49223;SDS011;35050;51.316;5.994;2022-08-07T10:04:32;1.67;;;0.93;;
49223;SDS011;35050;51.316;5.994;2022-08-07T10:21:00;0.65;;;0.63;;
49223;SDS011;35050;51.316;5.994;2022-08-07T10:23:39;1.52;;;0.80;;
49223;SDS011;35050;51.316;5.994;2022-08-07T10:26:29;0.82;;;0.77;;
49223;SDS011;35050;51.316;5.994;2022-08-07T10:29:56;1.65;;;0.70;;
49223;SDS011;35050;51.316;5.994;2022-08-07T10:40:20;0.77;;;0.77;;
49223;SDS011;35050;51.316;5.994;2022-08-07T10:45:32;1.27;;;0.60;;
49223;SDS011;35050;51.316;5.994;2022-08-07T10:50:55;1.15;;;0.88;;
49223;SDS011;35050;51.316;5.994;2022-08-07T10:56:22;1.10;;;0.70;;
49223;SDS011;35050;51.316;5.994;2022-08-07T11:01:59;0.50;;;0.40;;
49223;SDS011;35050;51.316;5.994;2022-08-07T11:04:56;1.27;;;0.70;;
49223;SDS011;35050;51.316;5.994;2022-08-07T11:10:11;1.02;;;0.60;;
49223;SDS011;35050;51.316;5.994;2022-08-07T11:13:03;1.20;;;0.70;;
49223;SDS011;35050;51.316;5.994;2022-08-07T11:15:33;0.95;;;0.60;;
49223;SDS011;35050;51.316;5.994;2022-08-07T11:21:13;0.90;;;0.60;;
49223;SDS011;35050;51.316;5.994;2022-08-07T11:23:56;0.93;;;0.73;;
49223;SDS011;35050;51.316;5.994;2022-08-07T11:29:10;0.80;;;0.73;;
49223;SDS011;35050;51.316;5.994;2022-08-07T11:31:52;0.88;;;0.45;;
49223;SDS011;35050;51.316;5.994;2022-08-07T11:34:30;1.00;;;0.82;;
49223;SDS011;35050;51.316;5.994;2022-08-07T11:37:26;0.52;;;0.50;;
49223;SDS011;35050;51.316;5.994;2022-08-07T11:48:18;0.70;;;0.70;;
49223;SDS011;35050;51.316;5.994;2022-08-07T11:53:30;0.68;;;0.68;;
49223;SDS011;35050;51.316;5.994;2022-08-07T11:58:53;1.33;;;0.70;;
49223;SDS011;35050;51.316;5.994;2022-08-07T12:04:30;0.80;;;0.70;;
49223;SDS011;35050;51.316;5.994;2022-08-07T12:07:25;1.90;;;0.80;;
49223;SDS011;35050;51.316;5.994;2022-08-07T12:09:57;1.05;;;0.50;;
49223;SDS011;35050;51.316;5.994;2022-08-07T12:12:35;1.13;;;0.70;;
49223;SDS011;35050;51.316;5.994;2022-08-07T12:17:48;0.65;;;0.60;;
49223;SDS011;35050;51.316;5.994;2022-08-07T12:26:17;1.92;;;0.77;;
49223;SDS011;35050;51.316;5.994;2022-08-07T12:29:00;0.73;;;0.70;;
49223;SDS011;35050;51.316;5.994;2022-08-07T12:31:36;0.52;;;0.50;;
49223;SDS011;35050;51.316;5.994;2022-08-07T12:34:23;1.15;;;0.70;;
49223;SDS011;35050;51.316;5.994;2022-08-07T12:36:52;1.00;;;0.63;;
49223;SDS011;35050;51.316;5.994;2022-08-07T12:39:20;0.93;;;0.50;;
49223;SDS011;35050;51.316;5.994;2022-08-07T12:41:48;0.70;;;0.63;;
49223;SDS011;35050;51.316;5.994;2022-08-07T12:44:16;0.77;;;0.70;;
49223;SDS011;35050;51.316;5.994;2022-08-07T12:49:32;1.23;;;0.70;;
49223;SDS011;35050;51.316;5.994;2022-08-07T12:55:19;0.60;;;0.60;;
49223;SDS011;35050;51.316;5.994;2022-08-07T12:57:56;1.15;;;0.60;;
49223;SDS011;35050;51.316;5.994;2022-08-07T13:00:28;0.73;;;0.60;;
49223;SDS011;35050;51.316;5.994;2022-08-07T13:05:59;0.80;;;0.80;;
49223;SDS011;35050;51.316;5.994;2022-08-07T13:14:06;0.60;;;0.60;;
49223;SDS011;35050;51.316;5.994;2022-08-07T13:16:59;0.50;;;0.50;;
49223;SDS011;35050;51.316;5.994;2022-08-07T13:19:34;0.43;;;0.43;;
49223;SDS011;35050;51.316;5.994;2022-08-07T13:24:41;1.08;;;0.80;;
49223;SDS011;35050;51.316;5.994;2022-08-07T13:27:14;0.98;;;0.65;;
49223;SDS011;35050;51.316;5.994;2022-08-07T13:29:57;0.50;;;0.47;;
49223;SDS011;35050;51.316;5.994;2022-08-07T13:32:38;1.17;;;0.60;;
49223;SDS011;35050;51.316;5.994;2022-08-07T13:43:28;0.93;;;0.65;;
49223;SDS011;35050;51.316;5.994;2022-08-07T13:45:59;0.65;;;0.60;;
49223;SDS011;35050;51.316;5.994;2022-08-07T13:48:27;1.13;;;0.70;;
49223;SDS011;35050;51.316;5.994;2022-08-07T13:50:55;0.47;;;0.47;;
49223;SDS011;35050;51.316;5.994;2022-08-07T13:53:25;0.70;;;0.70;;
49223;SDS011;35050;51.316;5.994;2022-08-07T13:56:02;0.85;;;0.57;;
49223;SDS011;35050;51.316;5.994;2022-08-07T13:58:29;1.27;;;0.60;;
49223;SDS011;35050;51.316;5.994;2022-08-07T14:01:21;1.65;;;0.60;;
49223;SDS011;35050;51.316;5.994;2022-08-07T14:03:50;0.95;;;0.60;;
49223;SDS011;35050;51.316;5.994;2022-08-07T14:06:17;0.50;;;0.50;;
49223;SDS011;35050;51.316;5.994;2022-08-07T14:08:45;0.90;;;0.75;;
49223;SDS011;35050;51.316;5.994;2022-08-07T14:11:15;1.27;;;0.60;;
49223;SDS011;35050;51.316;5.994;2022-08-07T14:13:46;0.60;;;0.60;;
49223;SDS011;35050;51.316;5.994;2022-08-07T14:16:19;1.20;;;0.50;;
49223;SDS011;35050;51.316;5.994;2022-08-07T14:18:51;0.88;;;0.60;;
49223;SDS011;35050;51.316;5.994;2022-08-07T14:21:19;0.98;;;0.60;;
49223;SDS011;35050;51.316;5.994;2022-08-07T14:24:01;0.52;;;0.52;;
49223;SDS011;35050;51.316;5.994;2022-08-07T14:26:43;0.50;;;0.50;;
49223;SDS011;35050;51.316;5.994;2022-08-07T14:29:16;1.02;;;0.50;;
49223;SDS011;35050;51.316;5.994;2022-08-07T14:31:45;0.60;;;0.60;;
49223;SDS011;35050;51.316;5.994;2022-08-07T14:34:13;0.38;;;0.38;;
49223;SDS011;35050;51.316;5.994;2022-08-07T14:36:41;1.13;;;0.70;;
49223;SDS011;35050;51.316;5.994;2022-08-07T14:39:07;0.52;;;0.40;;
49223;SDS011;35050;51.316;5.994;2022-08-07T14:41:34;0.98;;;0.55;;
49223;SDS011;35050;51.316;5.994;2022-08-07T14:44:04;0.68;;;0.63;;
49223;SDS011;35050;51.316;5.994;2022-08-07T14:46:33;0.68;;;0.52;;
49223;SDS011;35050;51.316;5.994;2022-08-07T14:49:01;2.40;;;0.63;;
49223;SDS011;35050;51.316;5.994;2022-08-07T14:51:29;0.57;;;0.50;;
49223;SDS011;35050;51.316;5.994;2022-08-07T14:53:58;0.73;;;0.60;;
49223;SDS011;35050;51.316;5.994;2022-08-07T14:56:27;0.50;;;0.38;;
49223;SDS011;35050;51.316;5.994;2022-08-07T14:58:54;1.20;;;0.70;;
49223;SDS011;35050;51.316;5.994;2022-08-07T15:01:25;0.35;;;0.35;;
49223;SDS011;35050;51.316;5.994;2022-08-07T15:03:57;0.50;;;0.50;;
49223;SDS011;35050;51.316;5.994;2022-08-07T15:06:26;0.60;;;0.60;;
49223;SDS011;35050;51.316;5.994;2022-08-07T15:08:55;0.70;;;0.70;;
49223;SDS011;35050;51.316;5.994;2022-08-07T15:11:33;0.65;;;0.35;;
49223;SDS011;35050;51.316;5.994;2022-08-07T15:14:04;0.50;;;0.50;;
49223;SDS011;35050;51.316;5.994;2022-08-07T15:16:38;0.70;;;0.63;;
49223;SDS011;35050;51.316;5.994;2022-08-07T15:19:14;0.60;;;0.60;;
49223;SDS011;35050;51.316;5.994;2022-08-07T15:21:47;0.80;;;0.50;;
49223;SDS011;35050;51.316;5.994;2022-08-07T15:24:19;0.98;;;0.70;;
49223;SDS011;35050;51.316;5.994;2022-08-07T15:26:54;0.80;;;0.80;;
49223;SDS011;35050;51.316;5.994;2022-08-07T15:29:22;1.02;;;0.82;;
49223;SDS011;35050;51.316;5.994;2022-08-07T15:32:03;0.55;;;0.55;;
49223;SDS011;35050;51.316;5.994;2022-08-07T15:34:36;0.93;;;0.73;;
49223;SDS011;35050;51.316;5.994;2022-08-07T15:37:18;0.68;;;0.68;;
49223;SDS011;35050;51.316;5.994;2022-08-07T15:39:47;0.75;;;0.70;;
49223;SDS011;35050;51.316;5.994;2022-08-07T15:45:12;1.08;;;0.77;;
49223;SDS011;35050;51.316;5.994;2022-08-07T15:47:56;0.80;;;0.80;;
49223;SDS011;35050;51.316;5.994;2022-08-07T15:50:28;1.40;;;0.90;;
49223;SDS011;35050;51.316;5.994;2022-08-07T15:55:35;0.80;;;0.80;;
49223;SDS011;35050;51.316;5.994;2022-08-07T15:58:02;0.95;;;0.95;;
49223;SDS011;35050;51.316;5.994;2022-08-07T16:00:30;1.25;;;1.00;;
49223;SDS011;35050;51.316;5.994;2022-08-07T16:03:10;1.40;;;0.85;;
49223;SDS011;35050;51.316;5.994;2022-08-07T16:05:46;1.20;;;0.98;;
49223;SDS011;35050;51.316;5.994;2022-08-07T16:08:31;0.80;;;0.80;;
49223;SDS011;35050;51.316;5.994;2022-08-07T16:11:07;1.48;;;0.80;;
49223;SDS011;35050;51.316;5.994;2022-08-07T16:13:45;1.10;;;0.88;;
49223;SDS011;35050;51.316;5.994;2022-08-07T16:16:33;1.02;;;0.80;;
49223;SDS011;35050;51.316;5.994;2022-08-07T16:19:16;1.10;;;0.70;;
49223;SDS011;35050;51.316;5.994;2022-08-07T16:28:11;0.82;;;0.80;;
49223;SDS011;35050;51.316;5.994;2022-08-07T16:31:05;0.80;;;0.80;;
49223;SDS011;35050;51.316;5.994;2022-08-07T16:33:46;1.10;;;0.90;;
49223;SDS011;35050;51.316;5.994;2022-08-07T16:39:10;1.05;;;0.90;;
49223;SDS011;35050;51.316;5.994;2022-08-07T16:44:39;0.90;;;0.90;;
49223;SDS011;35050;51.316;5.994;2022-08-07T16:53:35;0.88;;;0.80;;
49223;SDS011;35050;51.316;5.994;2022-08-07T16:56:13;0.82;;;0.80;;
49223;SDS011;35050;51.316;5.994;2022-08-07T17:11:59;0.95;;;0.90;;
49223;SDS011;35050;51.316;5.994;2022-08-07T17:14:51;0.70;;;0.70;;
49223;SDS011;35050;51.316;5.994;2022-08-07T17:20:35;0.90;;;0.77;;
49223;SDS011;35050;51.316;5.994;2022-08-07T17:28:43;1.13;;;0.80;;
49223;SDS011;35050;51.316;5.994;2022-08-07T17:31:23;0.60;;;0.60;;
49223;SDS011;35050;51.316;5.994;2022-08-07T17:36:53;0.80;;;0.80;;
49223;SDS011;35050;51.316;5.994;2022-08-07T17:39:43;0.85;;;0.85;;
49223;SDS011;35050;51.316;5.994;2022-08-07T17:42:25;0.80;;;0.80;;
49223;SDS011;35050;51.316;5.994;2022-08-07T17:45:07;0.88;;;0.80;;
49223;SDS011;35050;51.316;5.994;2022-08-07T17:50:15;0.77;;;0.77;;
49223;SDS011;35050;51.316;5.994;2022-08-07T17:52:59;0.70;;;0.70;;
49223;SDS011;35050;51.316;5.994;2022-08-07T17:55:36;2.38;;;0.90;;
49223;SDS011;35050;51.316;5.994;2022-08-07T17:58:13;1.35;;;0.65;;
49223;SDS011;35050;51.316;5.994;2022-08-07T18:00:45;0.73;;;0.73;;
49223;SDS011;35050;51.316;5.994;2022-08-07T18:03:39;1.10;;;1.00;;
49223;SDS011;35050;51.316;5.994;2022-08-07T18:06:13;0.70;;;0.70;;
49223;SDS011;35050;51.316;5.994;2022-08-07T18:11:09;1.00;;;0.80;;
49223;SDS011;35050;51.316;5.994;2022-08-07T18:16:38;0.80;;;0.80;;
49223;SDS011;35050;51.316;5.994;2022-08-07T18:21:45;1.42;;;1.05;;
49223;SDS011;35050;51.316;5.994;2022-08-07T18:24:38;0.93;;;0.93;;
49223;SDS011;35050;51.316;5.994;2022-08-07T18:27:53;2.05;;;0.80;;
49223;SDS011;35050;51.316;5.994;2022-08-07T18:29:59;1.00;;;1.00;;
49223;SDS011;35050;51.316;5.994;2022-08-07T18:38:17;0.90;;;0.90;;
49223;SDS011;35050;51.316;5.994;2022-08-07T18:46:34;1.17;;;1.00;;
49223;SDS011;35050;51.316;5.994;2022-08-07T18:49:03;1.20;;;0.93;;
49223;SDS011;35050;51.316;5.994;2022-08-07T18:51:46;1.20;;;1.10;;
49223;SDS011;35050;51.316;5.994;2022-08-07T18:57:45;1.88;;;1.45;;
49223;SDS011;35050;51.316;5.994;2022-08-07T19:00:17;1.40;;;1.30;;